createdAt,value
2023-03-25T00:00:24.636Z,99869.53
2023-03-25T00:02:52.611Z,99870.56
2023-03-25T00:05:21.461Z,99863.72
2023-03-25T00:07:51.518Z,99864.13
2023-03-25T00:10:18.117Z,99857.88
2023-03-25T00:12:44.788Z,99876.16
2023-03-25T00:15:12.611Z,99812.50
2023-03-25T00:17:39.239Z,99883.03
2023-03-25T00:20:09.621Z,99871.59
2023-03-25T00:22:40.843Z,99881.16
2023-03-25T00:25:17.729Z,99875.16
2023-03-25T00:27:46.378Z,99873.28
2023-03-25T00:30:14.478Z,99869.53
2023-03-25T00:32:41.059Z,99861.63
2023-03-25T00:35:08.427Z,99877.84
2023-03-25T00:37:34.904Z,99873.88
2023-03-25T00:40:01.511Z,99874.53
2023-03-25T00:42:27.949Z,99871.19
2023-03-25T00:44:54.467Z,99870.56
2023-03-25T00:47:22.027Z,99867.03
2023-03-25T00:49:49.841Z,99869.53
2023-03-25T00:52:16.841Z,99857.47
2023-03-25T00:54:43.861Z,99864.13
2023-03-25T00:57:10.441Z,99848.13
2023-03-25T00:59:36.857Z,99865.34
2023-03-25T01:02:03.663Z,99864.94
2023-03-25T01:04:30.228Z,99866.00
2023-03-25T01:06:56.849Z,99864.53
2023-03-25T01:09:23.371Z,99858.50
2023-03-25T01:11:50.256Z,99858.72
2023-03-25T01:14:24.031Z,99857.47
2023-03-25T01:16:50.577Z,99855.81
2023-03-25T01:19:17.125Z,99863.72
2023-03-25T01:21:45.178Z,99855.81
2023-03-25T01:24:14.327Z,99852.88
2023-03-25T01:26:43.484Z,99853.75
2023-03-25T01:29:11.126Z,99847.91
2023-03-25T01:31:37.600Z,99856.84
2023-03-25T01:34:04.628Z,99852.28
2023-03-25T01:36:31.266Z,99832.91
2023-03-25T01:38:59.348Z,99836.69
2023-03-25T01:41:33.210Z,99833.34
2023-03-25T01:44:10.480Z,99842.06
2023-03-25T01:46:39.288Z,99833.34
2023-03-25T01:49:09.371Z,99834.41
2023-03-25T01:51:40.727Z,99831.69
2023-03-25T01:54:07.969Z,99826.28
2023-03-25T01:56:38.344Z,99832.91
2023-03-25T01:59:06.766Z,99834.59
2023-03-25T02:01:33.254Z,99831.25
2023-03-25T02:04:11.508Z,99832.50
2023-03-25T02:06:44.711Z,99820.44
2023-03-25T02:09:13.571Z,99827.72
2023-03-25T02:11:40.792Z,99812.53
2023-03-25T02:14:12.354Z,99825.03
2023-03-25T02:16:50.837Z,99825.25
2023-03-25T02:19:54.520Z,99828.13
2023-03-25T02:22:54.636Z,99824.41
2023-03-25T02:25:36.266Z,99823.34
2023-03-25T02:28:12.565Z,99832.06
2023-03-25T02:31:12.768Z,99823.97
2023-03-25T02:34:12.770Z,99817.72
2023-03-25T02:36:39.648Z,99824.16
2023-03-25T02:39:24.446Z,99841.00
2023-03-25T02:42:01.665Z,99850.28
2023-03-25T02:44:36.814Z,99836.94
2023-03-25T02:47:08.867Z,99837.59
2023-03-25T02:49:39.182Z,99829.28
2023-03-25T02:52:15.770Z,99827.00
2023-03-25T02:54:45.162Z,99818.69
2023-03-25T02:57:13.901Z,99825.31
2023-03-25T02:59:41.652Z,99832.78
2023-03-25T03:02:10.213Z,99823.22
2023-03-25T03:04:55.854Z,99833.22
2023-03-25T03:07:34.916Z,99817.44
2023-03-25T03:10:20.384Z,99827.63
2023-03-25T03:12:55.653Z,99818.47
2023-03-25T03:15:37.225Z,99825.78
2023-03-25T03:18:38.015Z,99829.94
2023-03-25T03:21:13.630Z,99829.31
2023-03-25T03:23:48.942Z,99817.88
2023-03-25T03:26:34.283Z,99814.56
2023-03-25T03:29:20.261Z,99827.03
2023-03-25T03:32:06.283Z,99821.81
2023-03-25T03:34:44.549Z,99819.13
2023-03-25T03:37:18.441Z,99822.44
2023-03-25T03:39:47.737Z,99811.22
2023-03-25T03:42:38.100Z,99806.63
2023-03-25T03:45:13.771Z,99821.19
2023-03-25T03:47:47.559Z,99814.72
2023-03-25T03:50:22.180Z,99822.63
2023-03-25T03:53:00.651Z,99831.53
2023-03-25T03:55:37.817Z,99827.38
2023-03-25T03:58:15.191Z,99828.63
2023-03-25T04:00:52.496Z,99823.22
2023-03-25T04:03:28.263Z,99830.72
2023-03-25T04:06:15.836Z,99832.38
2023-03-25T04:09:27.042Z,99833.22
2023-03-25T04:12:05.697Z,99833.22
2023-03-25T04:14:32.638Z,99829.69
2023-03-25T04:16:59.678Z,99839.03
2023-03-25T04:19:26.695Z,99833.44
2023-03-25T04:21:53.807Z,99846.09
2023-03-25T04:24:20.438Z,99841.13
2023-03-25T04:26:47.623Z,99832.78
2023-03-25T04:29:14.098Z,99844.44
2023-03-25T04:31:46.649Z,99835.94
2023-03-25T04:34:16.617Z,99828.84
2023-03-25T04:36:43.530Z,99843.19
2023-03-25T04:39:11.863Z,99828.47
2023-03-25T04:41:39.142Z,99832.38
2023-03-25T04:44:08.040Z,99833.22
2023-03-25T04:46:36.432Z,99822.84
2023-03-25T04:49:06.004Z,99832.63
2023-03-25T04:51:32.985Z,99833.66
2023-03-25T04:53:59.588Z,99836.56
2023-03-25T04:56:26.389Z,99830.34
2023-03-25T04:58:53.419Z,99833.66
2023-03-25T05:01:32.320Z,99842.97
2023-03-25T05:04:07.642Z,99823.69
2023-03-25T05:06:38.284Z,99836.16
2023-03-25T05:09:05.861Z,99834.47
2023-03-25T05:11:34.451Z,99832.81
2023-03-25T05:14:01.045Z,99833.22
2023-03-25T05:16:27.521Z,99840.53
2023-03-25T05:18:54.058Z,99839.09
2023-03-25T05:21:21.583Z,99837.44
2023-03-25T05:23:48.048Z,99830.81
2023-03-25T05:26:14.956Z,99828.50
2023-03-25T05:28:42.223Z,99832.91
2023-03-25T05:31:09.320Z,99833.31
2023-03-25T05:33:43.318Z,99839.50
2023-03-25T05:36:11.679Z,99849.94
2023-03-25T05:38:41.631Z,99847.84
2023-03-25T05:41:10.633Z,99837.06
2023-03-25T05:43:38.302Z,99844.09
2023-03-25T05:46:05.301Z,99833.75
2023-03-25T05:48:33.146Z,99837.88
2023-03-25T05:51:04.389Z,99839.53
2023-03-25T05:53:30.952Z,99836.59
2023-03-25T05:55:57.602Z,99840.75
2023-03-25T05:58:25.097Z,99843.06
2023-03-25T06:00:51.777Z,99846.81
2023-03-25T06:03:20.806Z,99838.69
2023-03-25T06:05:48.393Z,99833.09
2023-03-25T06:08:17.111Z,99826.25
2023-03-25T06:10:45.684Z,99828.13
2023-03-25T06:13:12.211Z,99843.91
2023-03-25T06:15:40.604Z,99845.59
2023-03-25T06:18:07.324Z,99837.88
2023-03-25T06:20:33.857Z,99841.63
2023-03-25T06:23:01.876Z,99840.38
2023-03-25T06:25:28.520Z,99839.56
2023-03-25T06:27:56.195Z,99841.84
2023-03-25T06:30:22.835Z,99842.88
2023-03-25T06:32:50.903Z,99835.38
2023-03-25T06:35:19.843Z,99838.94
2023-03-25T06:37:48.107Z,99837.91
2023-03-25T06:40:15.470Z,99843.50
2023-03-25T06:42:42.108Z,99841.66
2023-03-25T06:45:09.163Z,99847.47
2023-03-25T06:47:35.834Z,99849.56
2023-03-25T06:50:02.315Z,99848.53
2023-03-25T06:52:28.770Z,99844.16
2023-03-25T06:54:55.470Z,99846.66
2023-03-25T06:57:22.004Z,99855.19
2023-03-25T06:59:49.616Z,99860.38
2023-03-25T07:02:16.099Z,99867.66
2023-03-25T07:04:42.740Z,99865.59
2023-03-25T07:07:09.608Z,99870.78
2023-03-25T07:09:36.122Z,99848.69
2023-03-25T07:12:03.012Z,99869.03
2023-03-25T07:14:29.636Z,99868.22
2023-03-25T07:16:56.327Z,99867.81
2023-03-25T07:19:23.126Z,99870.72
2023-03-25T07:21:49.620Z,99873.44
2023-03-25T07:24:16.064Z,99870.34
2023-03-25T07:26:42.543Z,99871.19
2023-03-25T07:29:08.997Z,99874.50
2023-03-25T07:31:35.609Z,99869.94
2023-03-25T07:34:02.851Z,99856.22
2023-03-25T07:36:29.387Z,99869.94
2023-03-25T07:38:57.122Z,99871.59
2023-03-25T07:41:23.813Z,99880.31
2023-03-25T07:43:50.306Z,99868.25
2023-03-25T07:46:16.792Z,99879.28
2023-03-25T07:48:43.311Z,99879.72
2023-03-25T07:51:10.019Z,99885.72
2023-03-25T07:53:39.027Z,99873.47
2023-03-25T07:56:06.700Z,99880.72
2023-03-25T07:58:33.143Z,99878.69
2023-03-25T08:00:59.593Z,99885.31
2023-03-25T08:03:27.864Z,99888.69
2023-03-25T08:05:54.648Z,99893.22
2023-03-25T08:08:21.186Z,99890.75
2023-03-25T08:10:48.093Z,99896.97
2023-03-25T08:13:14.616Z,99890.97
2023-03-25T08:15:41.140Z,99896.59
2023-03-25T08:18:07.869Z,99904.50
2023-03-25T08:20:34.803Z,99909.47
2023-03-25T08:23:02.748Z,99899.91
2023-03-25T08:25:29.888Z,99918.63
2023-03-25T08:27:56.640Z,99932.13
2023-03-25T08:30:23.363Z,99931.91
2023-03-25T08:32:54.611Z,99931.09
2023-03-25T08:35:23.635Z,99933.44
2023-03-25T08:37:50.803Z,99939.47
2023-03-25T08:40:17.302Z,99932.19
2023-03-25T08:42:44.228Z,99941.72
2023-03-25T08:45:11.536Z,99935.69
2023-03-25T08:47:38.331Z,99939.06
2023-03-25T08:50:05.756Z,99940.72
2023-03-25T08:52:32.176Z,99931.97
2023-03-25T08:54:58.685Z,99949.03
2023-03-25T08:57:25.451Z,99936.94
2023-03-25T08:59:52.180Z,99939.47
2023-03-25T09:02:18.615Z,99931.13
2023-03-25T09:04:51.873Z,99927.56
2023-03-25T09:07:19.750Z,99942.97
2023-03-25T09:09:46.760Z,99939.44
2023-03-25T09:12:13.354Z,99943.81
2023-03-25T09:14:39.841Z,99944.03
2023-03-25T09:17:06.568Z,99944.41
2023-03-25T09:19:37.769Z,99946.94
2023-03-25T09:22:04.434Z,99946.72
2023-03-25T09:24:33.883Z,99943.41
2023-03-25T09:27:01.462Z,99926.34
2023-03-25T09:29:28.464Z,99929.47
2023-03-25T09:31:55.285Z,99937.16
2023-03-25T09:34:22.523Z,99941.31
2023-03-25T09:36:49.001Z,99937.97
2023-03-25T09:39:15.683Z,99938.00
2023-03-25T09:42:13.458Z,99946.50
2023-03-25T09:45:11.130Z,99939.84
2023-03-25T09:47:41.398Z,99928.56
2023-03-25T09:50:14.266Z,99934.81
2023-03-25T09:52:55.447Z,99939.84
2023-03-25T09:55:26.274Z,99950.22
2023-03-25T09:58:05.069Z,99941.03
2023-03-25T10:00:31.987Z,99945.19
2023-03-25T10:03:14.469Z,99951.34
2023-03-25T10:05:55.802Z,99934.63
2023-03-25T10:08:43.609Z,99953.78
2023-03-25T10:11:25.937Z,99944.06
2023-03-25T10:13:59.315Z,99941.66
2023-03-25T10:16:47.727Z,99944.81
2023-03-25T10:19:42.785Z,99908.53
2023-03-25T10:22:17.523Z,99942.63
2023-03-25T10:24:53.354Z,99940.97
2023-03-25T10:27:27.124Z,99945.00
2023-03-25T10:29:59.628Z,99943.16
2023-03-25T10:32:34.666Z,99955.25
2023-03-25T10:35:05.452Z,99965.25
2023-03-25T10:37:35.633Z,99971.44
2023-03-25T10:40:17.657Z,99954.78
2023-03-25T10:43:04.977Z,99949.97
2023-03-25T10:45:32.662Z,99953.50
2023-03-25T10:48:28.073Z,99940.56
2023-03-25T10:51:04.899Z,99943.44
2023-03-25T10:53:31.478Z,99961.72
2023-03-25T10:56:13.265Z,99955.44
2023-03-25T10:58:42.040Z,99963.94
2023-03-25T11:01:18.217Z,99955.84
2023-03-25T11:03:49.160Z,99959.00
2023-03-25T11:06:29.610Z,99972.00
2023-03-25T11:09:08.417Z,99980.19
2023-03-25T11:11:35.862Z,99966.41
2023-03-25T11:14:03.484Z,99978.94
2023-03-25T11:16:35.701Z,99978.50
2023-03-25T11:19:04.097Z,99972.19
2023-03-25T11:21:32.979Z,99971.69
2023-03-25T11:24:00.998Z,99963.50
2023-03-25T11:26:38.435Z,99953.59
2023-03-25T11:29:14.207Z,99954.41
2023-03-25T11:31:42.842Z,99941.81
2023-03-25T11:34:12.143Z,99942.44
2023-03-25T11:36:46.954Z,99953.28
2023-03-25T11:39:30.374Z,99946.31
2023-03-25T11:41:58.662Z,99938.25
2023-03-25T11:44:33.008Z,99942.38
2023-03-25T11:47:06.083Z,99949.41
2023-03-25T11:49:38.739Z,99923.38
2023-03-25T11:52:10.387Z,99942.47
2023-03-25T11:54:37.635Z,99931.50
2023-03-25T11:57:10.806Z,99930.84
2023-03-25T11:59:43.144Z,99920.88
2023-03-25T12:02:36.720Z,99930.34
2023-03-25T12:05:16.544Z,99933.38
2023-03-25T12:07:45.816Z,99928.38
2023-03-25T12:10:29.354Z,99923.25
2023-03-25T12:13:07.902Z,99935.28
2023-03-25T12:15:59.077Z,99941.84
2023-03-25T12:18:41.715Z,99919.88
2023-03-25T12:21:32.555Z,99927.13
2023-03-25T12:24:36.659Z,99906.13
2023-03-25T12:27:19.926Z,99908.53
2023-03-25T12:29:56.219Z,99911.25
2023-03-25T12:32:34.927Z,99918.13
2023-03-25T12:35:08.506Z,99912.16
2023-03-25T12:37:41.087Z,99900.84
2023-03-25T12:40:37.423Z,99912.72
2023-03-25T12:43:05.697Z,99908.94
2023-03-25T12:45:41.748Z,99907.94
2023-03-25T12:48:21.899Z,99894.66
2023-03-25T12:50:53.559Z,99907.28
2023-03-25T12:53:19.969Z,99917.75
2023-03-25T12:55:56.551Z,99912.84
2023-03-25T12:58:59.850Z,99911.88
2023-03-25T13:01:42.279Z,99906.53
2023-03-25T13:04:18.016Z,99900.56
2023-03-25T13:07:04.688Z,99888.84
2023-03-25T13:09:36.164Z,99897.91
2023-03-25T13:12:14.683Z,99892.28
2023-03-25T13:15:27.173Z,99895.69
2023-03-25T13:18:03.851Z,99902.78
2023-03-25T13:20:35.113Z,99899.78
2023-03-25T13:23:05.696Z,99899.66
2023-03-25T13:25:38.219Z,99898.59
2023-03-25T13:28:10.744Z,99891.19
2023-03-25T13:30:39.581Z,99886.00
2023-03-25T13:33:30.324Z,99890.44
2023-03-25T13:36:05.795Z,99883.25
2023-03-25T13:38:37.051Z,99874.22
2023-03-25T13:41:12.063Z,99861.16
2023-03-25T13:43:44.573Z,99888.59
2023-03-25T13:46:19.912Z,99866.09
2023-03-25T13:48:58.254Z,99894.09
2023-03-25T13:51:24.836Z,99895.94
2023-03-25T13:53:54.297Z,99911.34
2023-03-25T13:56:32.639Z,99965.75
2023-03-25T13:59:26.106Z,99969.44
2023-03-25T14:02:17.498Z,99990.66
2023-03-25T14:04:59.315Z,100004.19
2023-03-25T14:07:44.724Z,100018.97
2023-03-25T14:10:28.090Z,100039.81
2023-03-25T14:12:58.982Z,100030.66
2023-03-25T14:15:28.672Z,100000.25
2023-03-25T14:17:56.037Z,99976.75
2023-03-25T14:20:31.929Z,99980.25
2023-03-25T14:23:04.745Z,99975.22
2023-03-25T14:25:37.824Z,99972.53
2023-03-25T14:28:06.123Z,99971.66
2023-03-25T14:30:33.647Z,99979.38
2023-03-25T14:33:03.750Z,99970.16
2023-03-25T14:35:39.172Z,99970.53
2023-03-25T14:38:08.715Z,99958.22
2023-03-25T14:40:59.585Z,99945.66
2023-03-25T14:43:46.138Z,99955.84
2023-03-25T14:46:13.282Z,99958.41
2023-03-25T14:48:45.776Z,99959.28
2023-03-25T14:51:23.399Z,99952.16
2023-03-25T14:54:03.167Z,99961.91
2023-03-25T14:56:37.408Z,99957.88
2023-03-25T14:59:15.577Z,99965.19
2023-03-25T15:01:44.127Z,99954.13
2023-03-25T15:04:24.612Z,99955.34
2023-03-25T15:06:51.861Z,99945.41
2023-03-25T15:09:20.795Z,99941.72
2023-03-25T15:11:59.525Z,99947.31
2023-03-25T15:14:36.287Z,99960.69
2023-03-25T15:17:06.428Z,99926.97
2023-03-25T15:20:11.865Z,99955.72
2023-03-25T15:22:38.982Z,99956.56
2023-03-25T15:25:16.643Z,99946.91
2023-03-25T15:27:49.032Z,99956.28
2023-03-25T15:30:37.558Z,99946.56
2023-03-25T15:33:21.460Z,99925.59
2023-03-25T15:36:12.365Z,99930.94
2023-03-25T15:39:06.650Z,99933.97
2023-03-25T15:41:41.813Z,99948.66
2023-03-25T15:44:46.060Z,99921.53
2023-03-25T15:47:36.787Z,99931.16
2023-03-25T15:50:24.499Z,99916.50
2023-03-25T15:53:02.971Z,99915.06
2023-03-25T15:55:53.407Z,99910.50
2023-03-25T15:58:31.068Z,99910.94
2023-03-25T16:01:08.334Z,99916.44
2023-03-25T16:03:35.161Z,99905.63
2023-03-25T16:06:06.590Z,99918.13
2023-03-25T16:08:37.487Z,99916.44
2023-03-25T16:11:25.912Z,99915.16
2023-03-25T16:14:12.637Z,99924.00
2023-03-25T16:16:43.764Z,99912.84
2023-03-25T16:19:16.593Z,99914.03
2023-03-25T16:21:43.265Z,99904.06
2023-03-25T16:24:12.734Z,99907.59
2023-03-25T16:26:41.334Z,99937.22
2023-03-25T16:29:22.854Z,99924.31
2023-03-25T16:32:01.356Z,99919.44
2023-03-25T16:34:34.327Z,99920.09
2023-03-25T16:37:01.585Z,99914.97
2023-03-25T16:39:34.290Z,99934.63
2023-03-25T16:42:25.951Z,99935.72
2023-03-25T16:44:52.896Z,99937.88
2023-03-25T16:47:21.106Z,99933.94
2023-03-25T16:49:50.273Z,99928.31
2023-03-25T16:52:22.383Z,99939.16
2023-03-25T16:55:28.263Z,99941.88
2023-03-25T16:57:54.889Z,99957.94
2023-03-25T17:00:24.356Z,99955.88
2023-03-25T17:02:51.140Z,99963.63
2023-03-25T17:05:25.476Z,99993.25
2023-03-25T17:08:04.785Z,99982.84
2023-03-25T17:10:43.275Z,99996.09
2023-03-25T17:13:12.963Z,99997.25
2023-03-25T17:15:39.850Z,100013.56
2023-03-25T17:18:12.980Z,100006.88
2023-03-25T17:20:42.388Z,100015.59
2023-03-25T17:23:20.190Z,100016.44
2023-03-25T17:25:57.917Z,100023.53
2023-03-25T17:28:39.781Z,100022.28
2023-03-25T17:31:30.281Z,100038.97
2023-03-25T17:34:07.938Z,100041.03
2023-03-25T17:36:37.771Z,100035.44
2023-03-25T17:39:13.146Z,100036.47
2023-03-25T17:41:40.216Z,100041.69
2023-03-25T17:44:07.379Z,100047.31
2023-03-25T17:46:35.020Z,100053.56
2023-03-25T17:49:01.686Z,100057.31
2023-03-25T17:51:30.443Z,100072.72
2023-03-25T17:53:57.484Z,100068.94
2023-03-25T17:56:28.151Z,100076.25
2023-03-25T17:58:59.370Z,100070.22
2023-03-25T18:01:28.077Z,100068.13
2023-03-25T18:03:55.091Z,100070.63
2023-03-25T18:06:21.968Z,100080.03
2023-03-25T18:08:49.220Z,100077.31
2023-03-25T18:11:15.966Z,100088.34
2023-03-25T18:13:47.696Z,100105.19
2023-03-25T18:16:19.978Z,100101.88
2023-03-25T18:18:47.142Z,100111.03
2023-03-25T18:21:16.205Z,100104.81
2023-03-25T18:23:47.907Z,100112.72
2023-03-25T18:26:18.714Z,100114.56
2023-03-25T18:28:46.311Z,100119.34
2023-03-25T18:31:17.141Z,100136.44
2023-03-25T18:33:48.303Z,100134.97
2023-03-25T18:36:14.822Z,100125.81
2023-03-25T18:38:41.674Z,100119.09
2023-03-25T18:41:11.338Z,100110.53
2023-03-25T18:43:37.785Z,100115.75
2023-03-25T18:46:04.512Z,100125.44
2023-03-25T18:48:31.093Z,100138.22
2023-03-25T18:50:59.170Z,100158.84
2023-03-25T18:53:28.349Z,100165.28
2023-03-25T18:55:59.805Z,100174.47
2023-03-25T18:58:30.764Z,100182.09
2023-03-25T19:00:58.055Z,100175.31
2023-03-25T19:03:30.598Z,100180.25
2023-03-25T19:05:59.277Z,100179.41
2023-03-25T19:08:26.665Z,100180.44
2023-03-25T19:10:57.405Z,100172.31
2023-03-25T19:13:28.563Z,100166.31
2023-03-25T19:15:55.192Z,100163.94
2023-03-25T19:18:27.859Z,100165.84
2023-03-25T19:20:55.232Z,100147.91
2023-03-25T19:23:22.252Z,100151.50
2023-03-25T19:25:51.705Z,100154.50
2023-03-25T19:28:20.089Z,100158.84
2023-03-25T19:30:48.977Z,100153.00
2023-03-25T19:33:15.990Z,100158.22
2023-03-25T19:35:42.882Z,100148.22
2023-03-25T19:38:09.566Z,100138.25
2023-03-25T19:40:38.054Z,100145.97
2023-03-25T19:43:07.624Z,100138.50
2023-03-25T19:45:34.354Z,100142.44
2023-03-25T19:48:01.208Z,100143.88
2023-03-25T19:50:31.998Z,100127.00
2023-03-25T19:53:00.552Z,100116.41
2023-03-25T19:55:27.645Z,100123.72
2023-03-25T19:57:54.679Z,100122.09
2023-03-25T20:00:23.712Z,100124.41
2023-03-25T20:02:52.188Z,100124.19
2023-03-25T20:05:21.023Z,100118.38
2023-03-25T20:07:48.190Z,100121.69
2023-03-25T20:10:20.153Z,100118.00
2023-03-25T20:12:48.540Z,100113.66
2023-03-25T20:15:16.577Z,100111.75
2023-03-25T20:17:43.258Z,100126.31
2023-03-25T20:20:12.338Z,100123.81
2023-03-25T20:22:39.920Z,100120.91
2023-03-25T20:25:07.717Z,100131.72
2023-03-25T20:27:34.360Z,100120.06
2023-03-25T20:30:01.325Z,100121.97
2023-03-25T20:32:37.710Z,100100.09
2023-03-25T20:35:07.328Z,100109.13
2023-03-25T20:37:36.787Z,100112.50
2023-03-25T20:40:03.922Z,100111.91
2023-03-25T20:42:30.619Z,100118.97
2023-03-25T20:44:57.039Z,100105.66
2023-03-25T20:47:23.469Z,100105.44
2023-03-25T20:49:49.964Z,100114.00
2023-03-25T20:52:16.430Z,100115.03
2023-03-25T20:54:42.993Z,100114.63
2023-03-25T20:57:09.553Z,100111.09
2023-03-25T20:59:36.581Z,100103.41
2023-03-25T21:02:03.923Z,100116.53
2023-03-25T21:04:30.665Z,100111.56
2023-03-25T21:06:57.371Z,100118.84
2023-03-25T21:09:23.998Z,100119.44
2023-03-25T21:11:50.817Z,100134.66
2023-03-25T21:14:18.734Z,100121.94
2023-03-25T21:16:45.802Z,100131.97
2023-03-25T21:19:13.226Z,100126.50
2023-03-25T21:21:40.589Z,100148.53
2023-03-25T21:24:07.566Z,100151.03
2023-03-25T21:26:34.816Z,100151.88
2023-03-25T21:29:01.447Z,100140.59
2023-03-25T21:31:28.981Z,100155.63
2023-03-25T21:33:57.227Z,100147.72
2023-03-25T21:36:27.310Z,100166.25
2023-03-25T21:38:59.452Z,100160.66
2023-03-25T21:41:27.619Z,100157.94
2023-03-25T21:43:54.286Z,100160.00
2023-03-25T21:46:27.140Z,100157.72
2023-03-25T21:48:55.141Z,100160.22
2023-03-25T21:51:21.592Z,100163.53
2023-03-25T21:53:48.117Z,100162.69
2023-03-25T21:56:20.306Z,100155.81
2023-03-25T21:58:48.478Z,100158.53
2023-03-25T22:01:19.556Z,100168.47
2023-03-25T22:03:47.137Z,100164.72
2023-03-25T22:06:19.335Z,100154.66
2023-03-25T22:08:46.462Z,100146.75
2023-03-25T22:11:21.935Z,100170.09
2023-03-25T22:13:49.521Z,100170.91
2023-03-25T22:16:18.378Z,100170.50
2023-03-25T22:18:46.032Z,100174.47
2023-03-25T22:21:20.028Z,100175.53
2023-03-25T22:23:48.213Z,100175.72
2023-03-25T22:26:16.487Z,100180.94
2023-03-25T22:28:44.158Z,100179.28
2023-03-25T22:31:12.551Z,100182.00
2023-03-25T22:33:39.892Z,100184.91
2023-03-25T22:36:11.748Z,100177.44
2023-03-25T22:38:44.450Z,100173.09
2023-03-25T22:41:13.152Z,100189.06
2023-03-25T22:43:39.944Z,100193.88
2023-03-25T22:46:07.847Z,100187.25
2023-03-25T22:48:35.517Z,100196.38
2023-03-25T22:51:02.016Z,100192.22
2023-03-25T22:53:28.658Z,100183.66
2023-03-25T22:55:56.725Z,100201.78
2023-03-25T22:58:26.569Z,100194.28
2023-03-25T23:00:54.906Z,100197.22
2023-03-25T23:03:23.498Z,100205.53
2023-03-25T23:06:02.178Z,100208.25
2023-03-25T23:08:31.758Z,100216.16
2023-03-25T23:11:06.260Z,100222.19
2023-03-25T23:13:33.897Z,100221.78
2023-03-25T23:16:03.790Z,100221.38
2023-03-25T23:18:30.596Z,100214.72
2023-03-25T23:20:59.305Z,100213.25
2023-03-25T23:23:26.694Z,100212.19
2023-03-25T23:26:16.508Z,100213.44
2023-03-25T23:28:44.578Z,100210.75
2023-03-25T23:31:14.104Z,100212.81
2023-03-25T23:33:41.683Z,100217.00
2023-03-25T23:36:09.627Z,100210.97
2023-03-25T23:38:37.002Z,100209.09
2023-03-25T23:41:06.223Z,100213.00
2023-03-25T23:43:33.906Z,100214.31
2023-03-25T23:46:01.101Z,100209.72
2023-03-25T23:48:28.345Z,100210.56
2023-03-25T23:50:56.698Z,100211.38
2023-03-25T23:53:27.398Z,100208.84
2023-03-25T23:55:55.527Z,100221.56
2023-03-25T23:58:25.290Z,100222.59
